Time;durP1;ratioP1;P1;durP2;ratioP2;P2;SDS_P1;SDS_P2;PMS_P1;PMS_P2;Temp;Humidity;BMP_temperature;BMP_pressure;BME280_temperature;BME280_humidity;BME280_pressure;Samples;Min_cycle;Max_cycle;Signal;HPM_P1;HPM_P2
2021/09/22 00:01:18;;;;;;;;;33.33;32.67;18.90;41.60;;;;;;5013903;28;8796;-63
2021/09/22 00:03:43;;;;;;;;;28.33;28.33;18.90;41.50;;;;;;5014778;28;8819;-61
2021/09/22 00:06:09;;;;;;;;;33.67;32.33;18.90;41.60;;;;;;5014804;28;8938;-61
2021/09/22 00:08:35;;;;;;;;;29.00;29.00;18.90;41.60;;;;;;5015088;28;8795;-64
2021/09/22 00:11:02;;;;;;;;;31.67;31.67;19.00;41.60;;;;;;5013610;28;8847;-61
2021/09/22 00:13:28;;;;;;;;;28.33;28.33;19.00;41.60;;;;;;5014760;28;8772;-61
2021/09/22 00:15:54;;;;;;;;;31.67;31.00;19.10;41.60;;;;;;5013696;28;8819;-61
2021/09/22 00:18:20;;;;;;;;;30.67;30.33;19.10;41.60;;;;;;5014709;28;8799;-64
2021/09/22 00:20:46;;;;;;;;;23.00;23.00;18.80;42.90;;;;;;5013800;28;8800;-61
2021/09/22 00:23:11;;;;;;;;;29.00;29.00;18.90;42.10;;;;;;5014685;28;8772;-61
2021/09/22 00:25:37;;;;;;;;;33.00;32.00;18.80;42.30;;;;;;5014557;28;8839;-61
2021/09/22 00:28:05;;;;;;;;;33.75;32.75;18.80;42.20;;;;;;5014613;28;8768;-61
2021/09/22 00:30:31;;;;;;;;;36.67;34.67;18.80;42.20;;;;;;5012959;28;8807;-63
2021/09/22 00:32:59;;;;;;;;;33.25;32.25;18.90;42.30;;;;;;5014468;28;8780;-63
2021/09/22 00:35:25;;;;;;;;;38.75;35.00;18.90;42.30;;;;;;5014757;28;8787;-62
2021/09/22 00:37:50;;;;;;;;;37.50;34.75;18.90;42.40;;;;;;5014506;28;8814;-62
2021/09/22 00:40:16;;;;;;;;;32.67;32.67;18.90;42.20;;;;;;5013630;28;8808;-63
2021/09/22 00:42:42;;;;;;;;;37.25;35.25;18.90;42.20;;;;;;5014460;28;8784;-63
2021/09/22 00:45:13;;;;;;;;;34.00;32.75;18.90;42.30;;;;;;5014644;28;8831;-63
2021/09/22 00:47:40;;;;;;;;;31.33;31.33;18.90;42.30;;;;;;5014537;28;8938;-63
2021/09/22 00:50:06;;;;;;;;;32.00;31.50;18.90;42.40;;;;;;5013617;28;8818;-63
2021/09/22 00:52:33;;;;;;;;;34.00;33.00;18.90;42.40;;;;;;5014752;28;8817;-62
2021/09/22 00:54:59;;;;;;;;;26.33;26.33;18.90;42.60;;;;;;5014381;28;8764;-63
2021/09/22 00:57:25;;;;;;;;;31.00;31.00;18.90;42.40;;;;;;5014632;28;8772;-62
2021/09/22 00:59:51;;;;;;;;;34.00;33.00;18.90;42.40;;;;;;5013360;28;8910;-62
2021/09/22 01:02:17;;;;;;;;;29.00;29.00;18.90;42.50;;;;;;5014597;28;8887;-62
2021/09/22 01:04:43;;;;;;;;;30.33;30.00;18.80;42.60;;;;;;5014287;28;8839;-62
2021/09/22 01:07:11;;;;;;;;;26.00;26.00;18.80;42.90;;;;;;5014317;28;8788;-63
2021/09/22 01:09:38;;;;;;;;;25.33;25.33;18.80;42.90;;;;;;5013490;28;8772;-62
2021/09/22 01:12:05;;;;;;;;;26.33;26.33;18.90;42.80;;;;;;5014483;28;8771;-61
2021/09/22 01:14:31;;;;;;;;;27.00;27.00;18.90;42.40;;;;;;5014178;28;8780;-61
2021/09/22 01:16:57;;;;;;;;;27.00;27.00;18.70;42.90;;;;;;5014172;28;8779;-62
2021/09/22 01:19:26;;;;;;;;;28.00;28.00;18.60;43.20;;;;;;5012972;28;8815;-61
2021/09/22 01:21:53;;;;;;;;;30.00;30.00;18.60;43.20;;;;;;5014455;28;8760;-62
2021/09/22 01:24:19;;;;;;;;;4.33;4.33;18.60;43.30;;;;;;5014222;28;8799;-61
2021/09/22 01:26:46;;;;;;;;;31.00;31.00;18.60;43.30;;;;;;5014076;28;8815;-61
2021/09/22 01:29:12;;;;;;;;;31.00;31.00;18.60;43.30;;;;;;5013271;28;8830;-62
2021/09/22 01:31:41;;;;;;;;;28.67;28.67;18.60;43.30;;;;;;5014112;28;8776;-61
2021/09/22 01:34:09;;;;;;;;;27.00;26.00;18.60;43.40;;;;;;5014162;28;8808;-61
2021/09/22 01:36:35;;;;;;;;;30.00;30.00;18.50;43.40;;;;;;5014068;28;8856;-62
2021/09/22 01:39:02;;;;;;;;;35.67;34.00;18.60;44.40;;;;;;5013251;28;8788;-62
2021/09/22 01:41:27;;;;;;;;;31.00;30.00;18.60;43.50;;;;;;5014044;28;8811;-61
2021/09/22 01:43:54;;;;;;;;;28.67;28.67;18.50;43.50;;;;;;5017455;28;8818;-61
2021/09/22 01:46:20;;;;;;;;;29.33;29.33;18.40;43.90;;;;;;5017419;28;8827;-61
2021/09/22 01:48:46;;;;;;;;;24.67;24.67;18.30;44.00;;;;;;5016302;28;8792;-61
2021/09/22 01:51:12;;;;;;;;;27.33;27.33;18.40;43.90;;;;;;5017395;28;8768;-63
2021/09/22 01:53:38;;;;;;;;;33.67;33.67;18.50;43.90;;;;;;5017300;28;8776;-62
2021/09/22 01:56:06;;;;;;;;;32.33;32.33;18.60;43.70;;;;;;5017272;28;8800;-62
2021/09/22 01:58:33;;;;;;;;;31.67;31.67;18.60;43.80;;;;;;5016103;28;8788;-62
2021/09/22 02:01:13;;;;;;;;;30.67;30.67;18.60;43.70;;;;;;5017237;28;8772;-62
2021/09/22 02:03:40;;;;;;;;;31.00;31.00;18.60;43.70;;;;;;5016972;28;8874;-62
2021/09/22 02:06:06;;;;;;;;;28.67;28.67;18.70;43.80;;;;;;5017035;28;8816;-62
2021/09/22 02:08:32;;;;;;;;;25.67;25.67;18.70;43.70;;;;;;5005639;28;8914;-62
2021/09/22 02:10:58;;;;;;;;;28.33;28.33;18.70;43.90;;;;;;4997637;28;8787;-62
2021/09/22 02:13:24;;;;;;;;;31.33;31.00;18.60;43.90;;;;;;4997568;28;8783;-61
2021/09/22 02:15:50;;;;;;;;;32.00;31.00;18.60;44.00;;;;;;4997325;28;8795;-62
2021/09/22 02:18:15;;;;;;;;;26.67;26.67;18.60;44.10;;;;;;5007002;28;8772;-62
2021/09/22 02:20:41;;;;;;;;;27.00;27.00;18.60;44.00;;;;;;5017011;28;8772;-62
2021/09/22 02:23:07;;;;;;;;;30.00;30.00;18.60;43.90;;;;;;5016994;28;9415;-62
2021/09/22 02:25:33;;;;;;;;;28.33;28.33;18.60;44.00;;;;;;5016663;28;8796;-62
2021/09/22 02:27:59;;;;;;;;;27.33;27.33;18.60;44.00;;;;;;5015900;28;8776;-62
2021/09/22 02:30:25;;;;;;;;;28.00;28.00;18.50;44.10;;;;;;5015927;28;9731;-62
2021/09/22 02:32:51;;;;;;;;;33.00;33.00;18.50;44.40;;;;;;5016673;28;8814;-62
2021/09/22 02:35:18;;;;;;;;;28.33;28.33;18.40;44.30;;;;;;5016491;28;8760;-62
2021/09/22 02:37:44;;;;;;;;;29.00;29.00;18.40;44.40;;;;;;5015626;28;8785;-62
2021/09/22 02:40:13;;;;;;;;;30.00;30.00;18.30;44.50;;;;;;5016680;28;9552;-62
2021/09/22 02:42:41;;;;;;;;;25.67;25.33;18.40;44.50;;;;;;5016612;28;8780;-62
2021/09/22 02:45:08;;;;;;;;;30.00;30.00;18.40;44.30;;;;;;5016259;28;8826;-61
2021/09/22 02:47:34;;;;;;;;;26.00;26.00;18.50;44.30;;;;;;5015055;28;8776;-62
2021/09/22 02:50:00;;;;;;;;;23.67;23.67;18.30;44.30;;;;;;5017070;28;8790;-61
2021/09/22 02:52:25;;;;;;;;;28.67;28.00;18.20;44.70;;;;;;5033483;28;8781;-62
2021/09/22 02:54:51;;;;;;;;;27.00;27.00;18.10;44.70;;;;;;5027970;28;8818;-62
2021/09/22 02:57:17;;;;;;;;;26.00;26.00;18.00;44.90;;;;;;5015302;28;8784;-61
2021/09/22 02:59:43;;;;;;;;;26.33;26.33;17.80;45.20;;;;;;5016432;28;8776;-62
2021/09/22 03:02:09;;;;;;;;;29.00;29.00;17.80;45.30;;;;;;5015088;28;8780;-62
2021/09/22 03:04:34;;;;;;;;;17.00;17.00;17.80;45.20;;;;;;5015906;28;8917;-62
2021/09/22 03:07:00;;;;;;;;;29.00;29.00;17.80;45.10;;;;;;5014808;28;8939;-62
2021/09/22 03:09:26;;;;;;;;;22.00;22.00;17.90;45.10;;;;;;5015931;28;8776;-62
2021/09/22 03:11:53;;;;;;;;;24.67;24.67;17.90;45.10;;;;;;5015836;28;8861;-62
2021/09/22 03:14:18;;;;;;;;;23.33;23.33;17.80;45.00;;;;;;5015811;28;8886;-62
2021/09/22 03:16:44;;;;;;;;;21.67;21.67;17.80;44.80;;;;;;5014655;28;9010;-62
2021/09/22 03:19:10;;;;;;;;;25.67;25.67;17.70;45.00;;;;;;5015713;28;8788;-62
2021/09/22 03:21:36;;;;;;;;;24.67;24.67;17.70;44.70;;;;;;5015712;28;8784;-62
2021/09/22 03:24:02;;;;;;;;;26.33;26.33;17.60;45.10;;;;;;5014888;28;8796;-62
2021/09/22 03:26:28;;;;;;;;;25.33;25.33;17.60;45.10;;;;;;5015537;28;9461;-63
2021/09/22 03:28:53;;;;;;;;;24.33;24.33;17.60;45.00;;;;;;5015725;28;8792;-62
2021/09/22 03:31:19;;;;;;;;;24.00;24.00;17.50;45.00;;;;;;5015560;28;8855;-62
2021/09/22 03:33:45;;;;;;;;;20.33;20.33;17.60;44.80;;;;;;5014550;28;8800;-61
2021/09/22 03:36:11;;;;;;;;;23.33;23.33;17.60;44.80;;;;;;5014469;28;9418;-62
2021/09/22 03:38:37;;;;;;;;;20.67;20.67;17.60;44.60;;;;;;5015649;28;8906;-62
2021/09/22 03:41:04;;;;;;;;;21.33;21.33;17.60;44.40;;;;;;5015550;28;8784;-63
2021/09/22 03:43:30;;;;;;;;;16.33;16.33;17.60;44.30;;;;;;5013232;28;8788;-62
2021/09/22 03:45:55;;;;;;;;;20.00;20.00;17.60;44.30;;;;;;5015429;28;8812;-62
2021/09/22 03:48:21;;;;;;;;;20.67;20.67;17.50;44.30;;;;;;5015512;28;8875;-62
2021/09/22 03:50:48;;;;;;;;;20.00;20.00;17.50;44.50;;;;;;5015180;28;9375;-62
2021/09/22 03:53:19;;;;;;;;;20.00;20.00;17.50;44.40;;;;;;5013904;28;8787;-61
2021/09/22 03:55:46;;;;;;;;;22.33;21.67;17.50;44.20;;;;;;5015406;28;8799;-62
2021/09/22 03:58:13;;;;;;;;;18.33;18.33;17.60;44.10;;;;;;5015327;28;8768;-61
2021/09/22 04:00:39;;;;;;;;;21.00;21.00;17.40;44.10;;;;;;5014970;28;8846;-61
2021/09/22 04:03:04;;;;;;;;;21.00;21.00;17.50;44.20;;;;;;5013546;28;8792;-61
2021/09/22 04:05:30;;;;;;;;;18.00;18.00;17.40;44.00;;;;;;5014645;28;8950;-62
2021/09/22 04:07:56;;;;;;;;;24.67;24.67;17.50;43.80;;;;;;5014920;28;8764;-62
2021/09/22 04:10:22;;;;;;;;;21.00;21.00;17.50;43.40;;;;;;5014854;28;8799;-62
2021/09/22 04:12:48;;;;;;;;;23.00;22.67;17.60;43.40;;;;;;5014276;28;8961;-62
2021/09/22 04:15:15;;;;;;;;;17.33;17.33;17.60;43.10;;;;;;5014529;28;8796;-62
2021/09/22 04:17:41;;;;;;;;;21.00;21.00;17.50;43.10;;;;;;5014774;28;8772;-62
2021/09/22 04:20:08;;;;;;;;;19.33;19.33;17.50;43.10;;;;;;5014735;28;8796;-63
2021/09/22 04:22:34;;;;;;;;;16.67;16.00;17.40;43.10;;;;;;5014714;28;8768;-62
2021/09/22 04:25:00;;;;;;;;;18.67;18.67;17.30;43.20;;;;;;5013623;28;9527;-63
2021/09/22 04:27:26;;;;;;;;;18.67;18.67;17.30;43.30;;;;;;5013640;28;8784;-62
2021/09/22 04:29:51;;;;;;;;;20.33;20.33;17.30;43.20;;;;;;5014546;28;8776;-62
2021/09/22 04:32:17;;;;;;;;;17.00;17.00;17.20;43.20;;;;;;5020516;28;8853;-62
2021/09/22 04:34:43;;;;;;;;;18.67;18.67;17.20;43.30;;;;;;5016148;28;8933;-62
2021/09/22 04:37:09;;;;;;;;;17.00;17.00;17.10;43.20;;;;;;5034363;28;9389;-62
2021/09/22 04:39:35;;;;;;;;;15.00;15.00;17.10;43.40;;;;;;5023852;28;8811;-63
2021/09/22 04:42:01;;;;;;;;;16.00;16.00;17.00;43.40;;;;;;5019103;28;8963;-62
2021/09/22 04:44:27;;;;;;;;;16.67;16.67;17.00;43.60;;;;;;5015665;28;8762;-62
2021/09/22 04:46:53;;;;;;;;;19.33;19.33;16.80;43.90;;;;;;5020961;28;8819;-63
2021/09/22 04:49:19;;;;;;;;;18.33;18.33;16.90;43.80;;;;;;5025345;28;8842;-63
2021/09/22 04:51:45;;;;;;;;;19.67;19.67;17.00;43.50;;;;;;5019663;28;8780;-62
2021/09/22 04:54:10;;;;;;;;;19.00;19.00;17.00;43.30;;;;;;5009379;28;8910;-63
2021/09/22 04:56:36;;;;;;;;;20.67;20.67;17.00;43.40;;;;;;5014324;28;8784;-64
2021/09/22 04:59:02;;;;;;;;;18.67;18.67;17.00;43.30;;;;;;5023039;28;8903;-63
2021/09/22 05:01:28;;;;;;;;;17.67;16.33;17.10;42.90;;;;;;5020962;28;8807;-63
2021/09/22 05:03:53;;;;;;;;;15.33;15.33;17.10;42.90;;;;;;5015944;28;8813;-63
2021/09/22 05:06:19;;;;;;;;;17.33;17.33;17.00;42.80;;;;;;5019284;28;8849;-63
2021/09/22 05:08:45;;;;;;;;;18.00;18.00;17.00;42.90;;;;;;5026491;28;8766;-64
2021/09/22 05:11:11;;;;;;;;;18.00;18.00;17.00;42.90;;;;;;5020763;28;8772;-66
2021/09/22 05:13:36;;;;;;;;;18.33;18.33;17.00;42.90;;;;;;5011453;28;9472;-66
2021/09/22 05:16:02;;;;;;;;;18.00;18.00;17.00;42.80;;;;;;5020066;28;8790;-66
2021/09/22 05:18:28;;;;;;;;;18.00;18.00;17.20;42.80;;;;;;5035271;28;8774;-65
2021/09/22 05:20:54;;;;;;;;;20.33;20.33;17.20;42.60;;;;;;5037969;28;8769;-66
2021/09/22 05:23:20;;;;;;;;;18.67;18.67;17.10;42.50;;;;;;5025842;28;8804;-66
2021/09/22 05:25:45;;;;;;;;;15.00;15.00;17.10;42.70;;;;;;5017606;28;8830;-66
2021/09/22 05:28:11;;;;;;;;;17.33;17.33;17.00;42.90;;;;;;5017699;28;8788;-66
2021/09/22 05:30:37;;;;;;;;;19.33;19.33;17.00;42.90;;;;;;5017519;28;8892;-66
2021/09/22 05:33:07;;;;;;;;;19.33;19.33;17.00;43.00;;;;;;5014425;28;8788;-66
2021/09/22 05:35:32;;;;;;;;;18.67;18.00;17.00;42.80;;;;;;5021449;28;9684;-65
2021/09/22 05:37:59;;;;;;;;;16.33;16.33;17.10;42.60;;;;;;5026851;28;8790;-65
2021/09/22 05:40:25;;;;;;;;;18.33;18.33;17.10;43.50;;;;;;5025945;28;8830;-66
2021/09/22 05:42:52;;;;;;;;;19.67;19.00;17.20;42.80;;;;;;5017788;28;8780;-66
2021/09/22 05:45:17;;;;;;;;;15.67;15.67;17.30;42.50;;;;;;5017310;28;8830;-65
2021/09/22 05:47:43;;;;;;;;;18.00;18.00;17.20;42.30;;;;;;5017320;28;8780;-66
2021/09/22 05:50:09;;;;;;;;;17.00;17.00;17.20;42.50;;;;;;5022748;28;8784;-66
2021/09/22 05:52:35;;;;;;;;;15.00;15.00;17.20;42.50;;;;;;5025880;28;8889;-65
2021/09/22 05:55:01;;;;;;;;;16.33;16.33;17.20;42.70;;;;;;5025614;28;8776;-66
2021/09/22 05:57:27;;;;;;;;;17.33;17.33;17.10;42.60;;;;;;5023733;28;8806;-66
2021/09/22 05:59:52;;;;;;;;;18.00;18.00;17.20;42.60;;;;;;5033518;28;8785;-66
2021/09/22 06:02:18;;;;;;;;;15.00;15.00;17.30;42.50;;;;;;5024590;28;8799;-65
2021/09/22 06:04:44;;;;;;;;;18.00;18.00;17.40;42.40;;;;;;5031522;28;8849;-66
2021/09/22 06:07:10;;;;;;;;;19.00;19.00;17.40;42.40;;;;;;5036894;28;8999;-66
2021/09/22 06:09:35;;;;;;;;;16.33;16.33;17.40;42.10;;;;;;5026769;28;8796;-66
2021/09/22 06:12:01;;;;;;;;;17.67;17.67;17.40;41.90;;;;;;5028217;28;8791;-66
2021/09/22 06:14:27;;;;;;;;;17.00;17.00;17.30;42.10;;;;;;5018133;28;8793;-66
2021/09/22 06:16:53;;;;;;;;;16.00;16.00;17.20;42.40;;;;;;5018365;28;8812;-66
2021/09/22 06:19:19;;;;;;;;;15.00;15.00;17.20;42.50;;;;;;5025619;28;8987;-66
2021/09/22 06:21:44;;;;;;;;;15.33;15.33;17.30;42.60;;;;;;5020553;28;8786;-66
2021/09/22 06:24:13;;;;;;;;;19.00;19.00;17.40;42.50;;;;;;5036492;28;9673;-65
2021/09/22 06:26:39;;;;;;;;;17.67;17.67;17.40;42.10;;;;;;5036409;28;8910;-65
2021/09/22 06:29:06;;;;;;;;;17.00;17.00;17.40;42.10;;;;;;5021739;28;8792;-65
2021/09/22 06:31:36;;;;;;;;;17.00;17.00;17.40;42.20;;;;;;5001868;28;8800;-65
2021/09/22 06:34:02;;;;;;;;;17.00;17.00;17.50;42.00;;;;;;5031663;28;8924;-66
2021/09/22 06:36:28;;;;;;;;;19.33;19.33;17.40;41.90;;;;;;5024189;28;8906;-65
2021/09/22 06:38:53;;;;;;;;;14.67;14.67;17.40;41.80;;;;;;5023851;28;8777;-66
2021/09/22 06:41:19;;;;;;;;;18.00;18.00;17.50;41.80;;;;;;5025493;28;8769;-66
2021/09/22 06:43:45;;;;;;;;;15.67;15.67;17.50;41.80;;;;;;5014802;28;8790;-66
2021/09/22 06:46:11;;;;;;;;;16.67;16.67;17.70;41.70;;;;;;5036391;28;8793;-65
2021/09/22 06:48:36;;;;;;;;;16.00;16.00;17.60;41.60;;;;;;5028294;28;8753;-66
2021/09/22 06:51:02;;;;;;;;;13.00;13.00;17.70;41.90;;;;;;5020790;28;8776;-66
2021/09/22 06:53:28;;;;;;;;;15.00;15.00;17.80;41.50;;;;;;5015187;28;8776;-65
2021/09/22 06:55:54;;;;;;;;;13.00;13.00;17.70;41.30;;;;;;5017810;28;8788;-65
2021/09/22 06:58:20;;;;;;;;;15.67;15.67;17.80;41.30;;;;;;5025656;28;8832;-66
2021/09/22 07:00:46;;;;;;;;;9.67;9.67;17.70;40.90;;;;;;5023794;28;8790;-66
2021/09/22 07:03:14;;;;;;;;;14.00;14.00;17.80;41.00;;;;;;5021929;28;8840;-66
2021/09/22 07:05:43;;;;;;;;;16.67;16.67;17.70;40.90;;;;;;5027372;28;8832;-66
2021/09/22 07:08:08;;;;;;;;;15.00;15.00;17.70;40.80;;;;;;5022955;28;9424;-66
2021/09/22 07:10:36;;;;;;;;;15.00;15.00;17.70;41.00;;;;;;5035602;28;8753;-66
2021/09/22 07:13:02;;;;;;;;;14.33;14.33;17.90;41.10;;;;;;5021418;28;8788;-66
2021/09/22 07:15:28;;;;;;;;;16.67;16.67;17.90;40.50;;;;;;5015666;28;8772;-66
2021/09/22 07:17:54;;;;;;;;;15.00;15.00;18.00;40.50;;;;;;5016035;28;8784;-66
2021/09/22 07:20:19;;;;;;;;;12.67;12.67;18.00;40.50;;;;;;5015934;28;8782;-66
2021/09/22 07:22:45;;;;;;;;;13.33;13.33;18.20;40.30;;;;;;5018472;28;9483;-66
2021/09/22 07:25:11;;;;;;;;;13.00;13.00;18.30;40.10;;;;;;5035323;28;9007;-66
2021/09/22 07:27:37;;;;;;;;;16.00;16.00;18.40;39.80;;;;;;5033286;28;8758;-65
2021/09/22 07:30:05;;;;;;;;;15.33;15.33;18.50;39.50;;;;;;5019328;28;8796;-66
2021/09/22 07:32:31;;;;;;;;;13.67;13.67;18.40;39.30;;;;;;5015277;28;8772;-65
2021/09/22 07:34:57;;;;;;;;;16.67;16.67;18.60;39.30;;;;;;5015878;28;8885;-66
2021/09/22 07:37:23;;;;;;;;;16.33;16.33;18.80;38.80;;;;;;5019004;28;8776;-65
2021/09/22 07:39:48;;;;;;;;;18.33;18.33;18.70;38.70;;;;;;5020218;28;8789;-66
2021/09/22 07:42:14;;;;;;;;;17.33;17.33;18.70;38.80;;;;;;5026985;28;8907;-65
2021/09/22 07:44:45;;;;;;;;;13.33;13.33;18.90;38.70;;;;;;5015201;28;8791;-65
2021/09/22 07:47:13;;;;;;;;;14.67;14.67;18.60;38.70;;;;;;5015104;28;8816;-65
2021/09/22 07:49:40;;;;;;;;;16.00;15.67;18.50;39.00;;;;;;5015124;28;8792;-65
2021/09/22 07:52:06;;;;;;;;;16.00;16.00;18.70;39.20;;;;;;5015319;28;8764;-65
2021/09/22 07:54:32;;;;;;;;;18.33;18.33;18.70;39.10;;;;;;5014996;28;8800;-65
2021/09/22 07:56:58;;;;;;;;;17.33;17.33;18.80;38.80;;;;;;5015259;28;8772;-66
2021/09/22 07:59:24;;;;;;;;;16.67;16.67;18.70;38.80;;;;;;5028422;28;8793;-66
2021/09/22 08:01:49;;;;;;;;;19.00;19.00;18.70;38.90;;;;;;5034699;28;8793;-66
2021/09/22 08:04:15;;;;;;;;;12.00;12.00;18.80;39.00;;;;;;5025746;28;8845;-65
2021/09/22 08:06:42;;;;;;;;;18.33;18.33;18.80;38.80;;;;;;5025156;28;8844;-66
2021/09/22 08:09:07;;;;;;;;;18.33;18.33;18.80;39.00;;;;;;5021793;28;8760;-65
2021/09/22 08:11:33;;;;;;;;;16.00;16.00;18.90;39.20;;;;;;5021980;28;8786;-65
2021/09/22 08:13:59;;;;;;;;;19.67;19.67;18.80;38.90;;;;;;5015053;28;8887;-66
2021/09/22 08:16:24;;;;;;;;;16.00;16.00;18.80;39.00;;;;;;5014640;28;8786;-65
2021/09/22 08:18:50;;;;;;;;;15.33;15.33;18.80;38.70;;;;;;5015522;28;8804;-64
2021/09/22 08:21:16;;;;;;;;;19.00;19.00;18.80;39.10;;;;;;5020297;28;8787;-65
2021/09/22 08:23:42;;;;;;;;;17.00;17.00;18.90;39.10;;;;;;5025415;28;8782;-65
2021/09/22 08:26:09;;;;;;;;;14.00;14.00;18.90;38.70;;;;;;5033334;28;8932;-65
2021/09/22 08:28:35;;;;;;;;;21.33;21.33;19.10;39.00;;;;;;5028072;28;8788;-66
2021/09/22 08:31:02;;;;;;;;;17.00;17.00;19.10;38.70;;;;;;5026735;28;8826;-65
2021/09/22 08:33:28;;;;;;;;;17.67;17.33;19.10;38.60;;;;;;5028760;28;8797;-65
2021/09/22 08:35:53;;;;;;;;;15.00;15.00;19.00;38.60;;;;;;5022924;28;8784;-65
2021/09/22 08:38:19;;;;;;;;;13.00;13.00;19.10;38.90;;;;;;5017323;28;8784;-65
2021/09/22 08:40:45;;;;;;;;;17.00;17.00;19.10;38.80;;;;;;5034208;28;8793;-66
2021/09/22 08:43:14;;;;;;;;;14.00;14.00;19.20;38.50;;;;;;5030897;28;9479;-65
2021/09/22 08:45:42;;;;;;;;;19.00;19.00;19.30;38.40;;;;;;5034254;28;8835;-65
2021/09/22 08:48:09;;;;;;;;;17.33;17.33;19.50;38.10;;;;;;5034290;28;8769;-67
2021/09/22 08:50:35;;;;;;;;;17.00;17.00;19.50;38.10;;;;;;5034114;28;8773;-67
2021/09/22 08:53:01;;;;;;;;;18.00;18.00;19.60;38.00;;;;;;5035599;28;8777;-67
2021/09/22 08:55:27;;;;;;;;;16.33;16.33;19.60;37.60;;;;;;5018383;28;8780;-65
2021/09/22 08:57:53;;;;;;;;;15.33;15.33;19.70;37.90;;;;;;5018313;28;8772;-67
2021/09/22 09:00:19;;;;;;;;;19.00;19.00;19.70;37.50;;;;;;5018297;28;8776;-67
2021/09/22 09:02:47;;;;;;;;;18.67;18.67;19.80;37.50;;;;;;5018408;28;8772;-67
2021/09/22 09:05:18;;;;;;;;;18.00;18.00;19.80;37.00;;;;;;5018021;28;8811;-67
2021/09/22 09:07:57;;;;;;;;;18.67;17.33;19.80;37.00;;;;;;5018027;28;8776;-67
2021/09/22 09:10:26;;;;;;;;;20.00;19.00;19.80;37.00;;;;;;5018395;28;8775;-67
2021/09/22 09:13:07;;;;;;;;;16.00;16.00;19.90;36.90;;;;;;5017876;28;8768;-64
2021/09/22 09:15:38;;;;;;;;;18.00;18.00;19.80;37.00;;;;;;5016475;28;8914;-66
2021/09/22 09:18:16;;;;;;;;;18.33;18.33;19.70;37.30;;;;;;5018058;28;8792;-66
2021/09/22 09:20:46;;;;;;;;;17.67;17.67;19.70;37.70;;;;;;5018264;28;8805;-66
2021/09/22 09:23:15;;;;;;;;;16.33;16.33;19.70;37.80;;;;;;5017816;28;8780;-66
2021/09/22 09:25:45;;;;;;;;;15.00;15.00;19.60;38.10;;;;;;5017795;28;8823;-65
2021/09/22 09:28:35;;;;;;;;;18.67;18.67;19.60;38.20;;;;;;5017781;28;8760;-65
2021/09/22 09:31:05;;;;;;;;;17.00;17.00;19.70;38.70;;;;;;5017170;28;8796;-67
2021/09/22 09:33:44;;;;;;;;;19.33;19.33;19.70;39.10;;;;;;5017303;28;9467;-66
2021/09/22 09:36:18;;;;;;;;;20.33;20.33;19.70;39.40;;;;;;5017591;28;8784;-67
2021/09/22 09:38:55;;;;;;;;;18.67;18.67;19.70;39.60;;;;;;5017612;28;8744;-66
2021/09/22 09:41:31;;;;;;;;;20.00;20.00;19.60;39.70;;;;;;5017054;28;8803;-66
2021/09/22 09:43:58;;;;;;;;;19.33;19.33;19.40;40.00;;;;;;5016949;28;8784;-66
2021/09/22 09:46:26;;;;;;;;;17.33;17.33;19.30;40.90;;;;;;5016893;28;8820;-66
2021/09/22 09:49:04;;;;;;;;;19.33;19.33;19.10;41.10;;;;;;5017293;28;8853;-66
2021/09/22 09:51:36;;;;;;;;;23.00;23.00;19.00;41.30;;;;;;5017283;28;8788;-66
2021/09/22 09:54:07;;;;;;;;;21.67;20.33;19.00;41.50;;;;;;5017525;28;9482;-66
2021/09/22 09:56:33;;;;;;;;;22.00;22.00;18.90;42.20;;;;;;5016868;28;8853;-66
2021/09/22 09:59:00;;;;;;;;;23.00;23.00;18.80;42.60;;;;;;5017142;28;8764;-67
2021/09/22 10:01:55;;;;;;;;;31.33;31.33;18.80;43.20;;;;;;5017249;28;8845;-67
2021/09/22 10:04:23;;;;;;;;;39.00;36.75;18.80;43.20;;;;;;4975629;28;8880;-67
2021/09/22 10:06:50;;;;;;;;;22.00;22.00;18.70;43.50;;;;;;4976388;28;8981;-66
2021/09/22 10:09:17;;;;;;;;;20.33;20.33;18.60;43.90;;;;;;4990219;28;8796;-62
2021/09/22 10:11:45;;;;;;;;;25.67;25.67;18.60;44.30;;;;;;4977770;28;9527;-62
2021/09/22 10:14:14;;;;;;;;;42.75;38.00;18.80;44.50;;;;;;4982792;28;8796;-62
2021/09/22 10:16:41;;;;;;;;;26.33;26.33;18.80;44.30;;;;;;4984247;28;8833;-61
2021/09/22 10:19:08;;;;;;;;;22.33;22.33;18.80;44.40;;;;;;4975795;28;8779;-62
2021/09/22 10:21:37;;;;;;;;;30.00;29.33;18.80;44.40;;;;;;4983597;28;8823;-62
2021/09/22 10:24:08;;;;;;;;;36.00;34.67;18.80;44.30;;;;;;4986391;28;8783;-62
2021/09/22 10:26:36;;;;;;;;;29.00;27.33;18.60;44.40;;;;;;4977132;28;9592;-62
2021/09/22 10:29:23;;;;;;;;;23.00;23.00;18.70;44.70;;;;;;4982358;28;8795;-62
2021/09/22 10:31:49;;;;;;;;;23.00;23.00;18.60;45.10;;;;;;4990578;28;8794;-62
2021/09/22 10:34:34;;;;;;;;;38.00;34.67;18.70;45.10;;;;;;4994625;28;8828;-62
2021/09/22 10:37:02;;;;;;;;;24.33;24.33;18.80;45.10;;;;;;4983063;28;8771;-62
2021/09/22 10:39:34;;;;;;;;;22.33;22.33;18.80;45.10;;;;;;4975304;28;8856;-61
2021/09/22 10:42:00;;;;;;;;;25.67;25.67;18.80;45.40;;;;;;5015853;28;8785;-61
2021/09/22 10:44:31;;;;;;;;;26.00;26.00;18.70;45.20;;;;;;5016384;28;8783;-60
2021/09/22 10:47:25;;;;;;;;;24.33;24.33;18.60;45.50;;;;;;5015809;28;8901;-61
2021/09/22 10:49:51;;;;;;;;;25.33;25.33;18.60;45.90;;;;;;5023343;28;8923;-61
2021/09/22 10:52:31;;;;;;;;;19.33;19.33;18.60;46.20;;;;;;5016195;28;8788;-61
2021/09/22 10:55:15;;;;;;;;;26.00;26.00;18.60;46.50;;;;;;5016307;28;8779;-61
2021/09/22 10:57:44;;;;;;;;;24.00;24.00;18.70;46.80;;;;;;5016160;28;8873;-61
2021/09/22 11:00:19;;;;;;;;;27.00;27.00;18.50;46.80;;;;;;5016392;28;8787;-61
2021/09/22 11:02:53;;;;;;;;;26.67;26.67;18.50;46.60;;;;;;5035622;28;8781;-61
2021/09/22 11:05:27;;;;;;;;;26.00;26.00;18.30;46.50;;;;;;5035657;28;8898;-61
2021/09/22 11:07:53;;;;;;;;;26.00;26.00;18.40;46.80;;;;;;5035650;28;8792;-61
2021/09/22 11:10:32;;;;;;;;;31.00;31.00;18.40;46.50;;;;;;5035678;28;8789;-61
2021/09/22 11:13:31;;;;;;;;;29.33;28.67;18.40;47.20;;;;;;5022843;28;8813;-61
2021/09/22 11:16:15;;;;;;;;;29.00;29.00;18.50;46.10;;;;;;4983252;28;8891;-61
2021/09/22 11:18:46;;;;;;;;;27.00;27.00;18.40;46.40;;;;;;4982411;28;8812;-63
2021/09/22 11:21:12;;;;;;;;;35.67;33.00;18.60;46.70;;;;;;4988804;28;8825;-60
2021/09/22 11:23:41;;;;;;;;;31.67;31.00;18.50;46.70;;;;;;4974185;28;8769;-60
2021/09/22 11:26:09;;;;;;;;;27.00;27.00;18.60;46.70;;;;;;4977080;28;8825;-60
2021/09/22 11:28:35;;;;;;;;;28.00;28.00;18.60;46.80;;;;;;4993517;28;8790;-60
2021/09/22 11:31:01;;;;;;;;;30.00;30.00;18.40;47.10;;;;;;4993607;28;9429;-61
2021/09/22 11:33:28;;;;;;;;;27.67;27.67;18.50;47.40;;;;;;4993669;28;8825;-61
2021/09/22 11:35:55;;;;;;;;;32.00;32.00;18.40;47.30;;;;;;4993600;28;8782;-61
2021/09/22 11:38:20;;;;;;;;;28.67;28.67;18.40;47.00;;;;;;4975658;28;8777;-61
2021/09/22 11:40:47;;;;;;;;;26.67;26.67;18.50;47.60;;;;;;4974239;28;8788;-61
2021/09/22 11:43:14;;;;;;;;;25.33;25.33;18.50;47.40;;;;;;4973920;28;8796;-61
2021/09/22 11:45:43;;;;;;;;;30.67;29.00;18.50;47.50;;;;;;4974148;28;8828;-62
2021/09/22 11:48:11;;;;;;;;;29.33;29.33;18.60;47.50;;;;;;4974207;28;9435;-62
2021/09/22 11:50:40;;;;;;;;;25.00;25.00;18.50;47.50;;;;;;4979700;28;8792;-62
2021/09/22 11:53:09;;;;;;;;;23.67;23.33;18.50;47.70;;;;;;5020295;28;8878;-60
2021/09/22 11:55:36;;;;;;;;;28.00;28.00;18.50;47.60;;;;;;5019241;28;8882;-60
2021/09/22 11:58:11;;;;;;;;;28.00;28.00;18.50;47.90;;;;;;5017301;28;8776;-60
2021/09/22 12:00:38;;;;;;;;;27.00;27.00;18.40;48.30;;;;;;5012758;28;8772;-62
2021/09/22 12:03:12;;;;;;;;;29.33;29.33;18.40;47.70;;;;;;5014430;28;8765;-62
2021/09/22 12:05:39;;;;;;;;;28.67;28.67;18.40;47.30;;;;;;5008111;28;8841;-62
2021/09/22 12:08:06;;;;;;;;;34.33;33.00;18.30;47.50;;;;;;5013993;28;8797;-64
2021/09/22 12:10:33;;;;;;;;;30.00;30.00;18.20;47.60;;;;;;5018502;28;8788;-64
2021/09/22 12:13:01;;;;;;;;;27.67;27.67;18.30;48.10;;;;;;5018200;28;8769;-64
2021/09/22 12:15:27;;;;;;;;;32.67;32.67;18.50;48.00;;;;;;5014349;28;8776;-63
2021/09/22 12:17:53;;;;;;;;;31.67;31.00;18.40;47.80;;;;;;5013679;28;8764;-65
2021/09/22 12:20:20;;;;;;;;;25.00;25.00;18.40;48.40;;;;;;5015060;28;8799;-64
2021/09/22 12:23:04;;;;;;;;;23.00;23.00;18.50;48.50;;;;;;5014766;28;8768;-64
2021/09/22 12:25:32;;;;;;;;;30.67;30.67;18.50;48.70;;;;;;5014368;28;9367;-64
2021/09/22 12:28:00;;;;;;;;;36.33;34.33;18.50;48.40;;;;;;5014506;28;8782;-64
2021/09/22 12:30:35;;;;;;;;;31.67;30.67;18.50;48.10;;;;;;5014938;28;8764;-64
2021/09/22 12:33:04;;;;;;;;;38.00;36.00;18.70;48.50;;;;;;5014549;28;8895;-62
2021/09/22 12:35:38;;;;;;;;;34.00;33.00;18.90;48.40;;;;;;5014624;28;8760;-62
2021/09/22 12:38:07;;;;;;;;;41.00;37.00;19.20;49.40;;;;;;5014662;28;8838;-64
2021/09/22 12:40:40;;;;;;;;;46.50;40.50;19.70;48.50;;;;;;5019805;28;8772;-62